sensor_id;sensor_type;location;lat;lon;timestamp;temperature;humidity
10316;DHT22;5203;48.976;8.306;2023-12-28T00:01:39;2.40;99.90
10316;DHT22;5203;48.976;8.306;2023-12-28T00:04:05;2.40;99.90
10316;DHT22;5203;48.976;8.306;2023-12-28T00:08:52;2.40;99.90
10316;DHT22;5203;48.976;8.306;2023-12-28T00:11:18;2.30;99.90
10316;DHT22;5203;48.976;8.306;2023-12-28T00:13:45;2.30;99.90
10316;DHT22;5203;48.976;8.306;2023-12-28T00:16:10;2.20;99.90
10316;DHT22;5203;48.976;8.306;2023-12-28T00:18:36;2.20;99.90
10316;DHT22;5203;48.976;8.306;2023-12-28T00:21:02;2.10;99.90
10316;DHT22;5203;48.976;8.306;2023-12-28T00:23:27;2.10;99.90
10316;DHT22;5203;48.976;8.306;2023-12-28T00:25:53;2.00;99.90
10316;DHT22;5203;48.976;8.306;2023-12-28T00:28:18;2.00;99.90
10316;DHT22;5203;48.976;8.306;2023-12-28T00:30:44;2.00;99.90
10316;DHT22;5203;48.976;8.306;2023-12-28T00:33:10;1.90;99.90
10316;DHT22;5203;48.976;8.306;2023-12-28T00:35:35;1.80;99.90
10316;DHT22;5203;48.976;8.306;2023-12-28T00:38:01;1.80;99.90
10316;DHT22;5203;48.976;8.306;2023-12-28T00:40:26;1.80;99.90
10316;DHT22;5203;48.976;8.306;2023-12-28T00:42:52;1.80;99.90
10316;DHT22;5203;48.976;8.306;2023-12-28T00:45:18;1.70;99.90
10316;DHT22;5203;48.976;8.306;2023-12-28T00:47:43;1.70;99.90
10316;DHT22;5203;48.976;8.306;2023-12-28T00:50:10;1.80;99.90
10316;DHT22;5203;48.976;8.306;2023-12-28T00:52:40;1.80;99.90
10316;DHT22;5203;48.976;8.306;2023-12-28T00:55:06;1.90;99.90
10316;DHT22;5203;48.976;8.306;2023-12-28T00:57:33;1.90;99.90
10316;DHT22;5203;48.976;8.306;2023-12-28T00:59:59;1.90;99.90
10316;DHT22;5203;48.976;8.306;2023-12-28T01:02:24;1.90;99.90
10316;DHT22;5203;48.976;8.306;2023-12-28T01:04:50;2.00;99.90
10316;DHT22;5203;48.976;8.306;2023-12-28T01:07:15;2.00;99.90
10316;DHT22;5203;48.976;8.306;2023-12-28T01:09:41;2.00;99.90
10316;DHT22;5203;48.976;8.306;2023-12-28T01:12:07;1.90;99.90
10316;DHT22;5203;48.976;8.306;2023-12-28T01:14:33;2.00;99.90
10316;DHT22;5203;48.976;8.306;2023-12-28T01:16:58;1.90;99.90
10316;DHT22;5203;48.976;8.306;2023-12-28T01:19:28;2.00;99.90
10316;DHT22;5203;48.976;8.306;2023-12-28T01:21:53;2.00;99.90
10316;DHT22;5203;48.976;8.306;2023-12-28T01:24:19;1.90;99.90
10316;DHT22;5203;48.976;8.306;2023-12-28T01:26:45;1.90;99.90
10316;DHT22;5203;48.976;8.306;2023-12-28T01:29:10;2.00;99.90
10316;DHT22;5203;48.976;8.306;2023-12-28T01:31:36;2.00;99.90
10316;DHT22;5203;48.976;8.306;2023-12-28T01:34:04;2.00;99.90
10316;DHT22;5203;48.976;8.306;2023-12-28T01:36:30;2.20;99.90
10316;DHT22;5203;48.976;8.306;2023-12-28T01:38:56;2.20;99.90
10316;DHT22;5203;48.976;8.306;2023-12-28T01:41:21;2.30;99.90
10316;DHT22;5203;48.976;8.306;2023-12-28T01:43:47;2.30;99.90
10316;DHT22;5203;48.976;8.306;2023-12-28T01:46:21;2.40;99.90
10316;DHT22;5203;48.976;8.306;2023-12-28T01:48:49;2.30;99.90
10316;DHT22;5203;48.976;8.306;2023-12-28T01:51:19;2.40;99.90
10316;DHT22;5203;48.976;8.306;2023-12-28T01:53:53;2.30;99.90
10316;DHT22;5203;48.976;8.306;2023-12-28T01:56:20;2.40;99.90
10316;DHT22;5203;48.976;8.306;2023-12-28T01:58:49;2.40;99.90
10316;DHT22;5203;48.976;8.306;2023-12-28T02:01:17;2.40;99.90
10316;DHT22;5203;48.976;8.306;2023-12-28T02:03:43;2.40;99.90
10316;DHT22;5203;48.976;8.306;2023-12-28T02:06:08;2.50;99.90
10316;DHT22;5203;48.976;8.306;2023-12-28T02:08:34;2.50;99.90
10316;DHT22;5203;48.976;8.306;2023-12-28T02:11:00;2.60;99.90
10316;DHT22;5203;48.976;8.306;2023-12-28T02:13:26;2.60;99.90
10316;DHT22;5203;48.976;8.306;2023-12-28T02:15:58;2.60;99.90
10316;DHT22;5203;48.976;8.306;2023-12-28T02:18:32;2.60;99.90
10316;DHT22;5203;48.976;8.306;2023-12-28T02:21:00;2.70;99.90
10316;DHT22;5203;48.976;8.306;2023-12-28T02:23:28;2.70;99.90
10316;DHT22;5203;48.976;8.306;2023-12-28T02:25:53;2.80;99.90
10316;DHT22;5203;48.976;8.306;2023-12-28T02:28:19;2.90;99.90
10316;DHT22;5203;48.976;8.306;2023-12-28T02:30:45;3.00;99.90
10316;DHT22;5203;48.976;8.306;2023-12-28T02:33:26;3.00;99.90
10316;DHT22;5203;48.976;8.306;2023-12-28T02:35:58;3.10;99.90
10316;DHT22;5203;48.976;8.306;2023-12-28T02:38:25;3.20;99.90
10316;DHT22;5203;48.976;8.306;2023-12-28T02:40:53;3.20;99.90
10316;DHT22;5203;48.976;8.306;2023-12-28T02:43:19;3.30;99.90
10316;DHT22;5203;48.976;8.306;2023-12-28T02:45:45;3.40;99.90
10316;DHT22;5203;48.976;8.306;2023-12-28T02:48:11;3.50;99.90
10316;DHT22;5203;48.976;8.306;2023-12-28T02:50:36;3.60;99.90
10316;DHT22;5203;48.976;8.306;2023-12-28T02:53:03;3.70;99.90
10316;DHT22;5203;48.976;8.306;2023-12-28T02:55:29;3.70;99.90
10316;DHT22;5203;48.976;8.306;2023-12-28T02:57:56;3.70;99.90
10316;DHT22;5203;48.976;8.306;2023-12-28T03:00:25;3.80;99.90
10316;DHT22;5203;48.976;8.306;2023-12-28T03:02:51;3.80;99.90
10316;DHT22;5203;48.976;8.306;2023-12-28T03:05:17;3.90;99.90
10316;DHT22;5203;48.976;8.306;2023-12-28T03:07:43;3.90;99.90
10316;DHT22;5203;48.976;8.306;2023-12-28T03:10:09;4.00;99.90
10316;DHT22;5203;48.976;8.306;2023-12-28T03:12:38;4.10;99.90
10316;DHT22;5203;48.976;8.306;2023-12-28T03:15:04;4.10;99.90
10316;DHT22;5203;48.976;8.306;2023-12-28T03:17:30;4.10;99.90
10316;DHT22;5203;48.976;8.306;2023-12-28T03:19:58;4.20;99.90
10316;DHT22;5203;48.976;8.306;2023-12-28T03:22:24;4.30;99.90
10316;DHT22;5203;48.976;8.306;2023-12-28T03:24:50;4.40;99.90
10316;DHT22;5203;48.976;8.306;2023-12-28T03:27:16;4.50;99.70
10316;DHT22;5203;48.976;8.306;2023-12-28T03:29:42;4.50;97.50
10316;DHT22;5203;48.976;8.306;2023-12-28T03:32:11;4.70;95.50
10316;DHT22;5203;48.976;8.306;2023-12-28T03:34:36;4.90;93.10
10316;DHT22;5203;48.976;8.306;2023-12-28T03:37:02;5.00;92.10
10316;DHT22;5203;48.976;8.306;2023-12-28T03:39:28;5.20;91.20
10316;DHT22;5203;48.976;8.306;2023-12-28T03:41:53;5.50;88.80
10316;DHT22;5203;48.976;8.306;2023-12-28T03:44:20;5.80;88.70
10316;DHT22;5203;48.976;8.306;2023-12-28T03:46:49;5.90;87.50
10316;DHT22;5203;48.976;8.306;2023-12-28T03:49:19;6.00;86.30
10316;DHT22;5203;48.976;8.306;2023-12-28T03:51:45;6.10;85.50
10316;DHT22;5203;48.976;8.306;2023-12-28T03:54:11;6.30;84.60
10316;DHT22;5203;48.976;8.306;2023-12-28T03:56:37;6.30;85.70
10316;DHT22;5203;48.976;8.306;2023-12-28T03:59:08;6.60;81.20
10316;DHT22;5203;48.976;8.306;2023-12-28T04:01:34;6.70;81.00
10316;DHT22;5203;48.976;8.306;2023-12-28T04:03:59;6.80;81.90
10316;DHT22;5203;48.976;8.306;2023-12-28T04:06:25;6.90;81.60
10316;DHT22;5203;48.976;8.306;2023-12-28T04:08:53;7.00;82.50
10316;DHT22;5203;48.976;8.306;2023-12-28T04:11:19;7.20;79.60
10316;DHT22;5203;48.976;8.306;2023-12-28T04:13:44;7.30;82.70
10316;DHT22;5203;48.976;8.306;2023-12-28T04:16:14;7.30;83.50
10316;DHT22;5203;48.976;8.306;2023-12-28T04:18:41;7.30;82.30
10316;DHT22;5203;48.976;8.306;2023-12-28T04:21:11;7.60;79.70
10316;DHT22;5203;48.976;8.306;2023-12-28T04:23:38;7.60;79.70
10316;DHT22;5203;48.976;8.306;2023-12-28T04:26:04;7.60;79.50
10316;DHT22;5203;48.976;8.306;2023-12-28T04:28:33;7.70;79.30
10316;DHT22;5203;48.976;8.306;2023-12-28T04:31:05;7.80;77.60
10316;DHT22;5203;48.976;8.306;2023-12-28T04:33:31;7.80;79.30
10316;DHT22;5203;48.976;8.306;2023-12-28T04:36:00;7.80;81.60
10316;DHT22;5203;48.976;8.306;2023-12-28T04:38:26;7.60;82.40
10316;DHT22;5203;48.976;8.306;2023-12-28T04:40:51;7.60;82.40
10316;DHT22;5203;48.976;8.306;2023-12-28T04:43:18;7.60;81.20
10316;DHT22;5203;48.976;8.306;2023-12-28T04:45:44;7.60;82.60
10316;DHT22;5203;48.976;8.306;2023-12-28T04:48:09;7.50;84.70
10316;DHT22;5203;48.976;8.306;2023-12-28T04:50:35;7.50;86.20
10316;DHT22;5203;48.976;8.306;2023-12-28T04:53:00;7.40;87.60
10316;DHT22;5203;48.976;8.306;2023-12-28T04:55:28;7.40;89.80
10316;DHT22;5203;48.976;8.306;2023-12-28T04:57:56;7.30;91.40
10316;DHT22;5203;48.976;8.306;2023-12-28T05:00:25;7.20;94.50
10316;DHT22;5203;48.976;8.306;2023-12-28T05:02:50;7.10;94.80
10316;DHT22;5203;48.976;8.306;2023-12-28T05:05:16;7.00;93.50
10316;DHT22;5203;48.976;8.306;2023-12-28T05:07:42;6.90;95.20
10316;DHT22;5203;48.976;8.306;2023-12-28T05:10:08;6.90;95.80
10316;DHT22;5203;48.976;8.306;2023-12-28T05:12:34;6.90;96.90
10316;DHT22;5203;48.976;8.306;2023-12-28T05:15:03;6.90;97.40
10316;DHT22;5203;48.976;8.306;2023-12-28T05:17:32;6.80;97.60
10316;DHT22;5203;48.976;8.306;2023-12-28T05:19:58;6.90;98.00
10316;DHT22;5203;48.976;8.306;2023-12-28T05:22:23;6.80;98.50
10316;DHT22;5203;48.976;8.306;2023-12-28T05:24:52;6.80;98.90
10316;DHT22;5203;48.976;8.306;2023-12-28T05:27:18;6.70;98.20
10316;DHT22;5203;48.976;8.306;2023-12-28T05:29:43;6.70;98.70
10316;DHT22;5203;48.976;8.306;2023-12-28T05:32:10;6.70;98.90
10316;DHT22;5203;48.976;8.306;2023-12-28T05:34:35;6.70;99.50
10316;DHT22;5203;48.976;8.306;2023-12-28T05:37:04;6.80;99.90
10316;DHT22;5203;48.976;8.306;2023-12-28T05:39:30;6.70;99.90
10316;DHT22;5203;48.976;8.306;2023-12-28T05:41:56;6.70;99.20
10316;DHT22;5203;48.976;8.306;2023-12-28T05:44:21;6.80;98.30
10316;DHT22;5203;48.976;8.306;2023-12-28T05:46:47;7.00;94.30
10316;DHT22;5203;48.976;8.306;2023-12-28T05:49:13;7.10;95.30
10316;DHT22;5203;48.976;8.306;2023-12-28T05:51:39;7.20;94.70
10316;DHT22;5203;48.976;8.306;2023-12-28T05:54:05;7.30;94.00
10316;DHT22;5203;48.976;8.306;2023-12-28T05:56:31;7.30;93.80
10316;DHT22;5203;48.976;8.306;2023-12-28T05:58:56;7.30;94.70
10316;DHT22;5203;48.976;8.306;2023-12-28T06:01:22;7.30;93.20
10316;DHT22;5203;48.976;8.306;2023-12-28T06:03:48;7.30;92.80
10316;DHT22;5203;48.976;8.306;2023-12-28T06:06:15;7.40;91.20
10316;DHT22;5203;48.976;8.306;2023-12-28T06:08:50;7.50;90.10
10316;DHT22;5203;48.976;8.306;2023-12-28T06:11:16;7.60;87.20
10316;DHT22;5203;48.976;8.306;2023-12-28T06:13:45;7.70;88.10
10316;DHT22;5203;48.976;8.306;2023-12-28T06:16:10;7.70;87.20
10316;DHT22;5203;48.976;8.306;2023-12-28T06:18:39;7.90;85.50
10316;DHT22;5203;48.976;8.306;2023-12-28T06:21:05;8.00;83.70
10316;DHT22;5203;48.976;8.306;2023-12-28T06:23:32;8.20;82.50
10316;DHT22;5203;48.976;8.306;2023-12-28T06:25:57;8.20;83.00
10316;DHT22;5203;48.976;8.306;2023-12-28T06:28:23;8.30;81.30
10316;DHT22;5203;48.976;8.306;2023-12-28T06:30:49;8.30;82.90
10316;DHT22;5203;48.976;8.306;2023-12-28T06:33:14;8.20;83.80
10316;DHT22;5203;48.976;8.306;2023-12-28T06:35:41;8.20;82.70
10316;DHT22;5203;48.976;8.306;2023-12-28T06:38:09;8.40;82.60
10316;DHT22;5203;48.976;8.306;2023-12-28T06:40:35;8.40;82.30
10316;DHT22;5203;48.976;8.306;2023-12-28T06:43:03;8.40;82.60
10316;DHT22;5203;48.976;8.306;2023-12-28T06:45:29;8.40;83.70
10316;DHT22;5203;48.976;8.306;2023-12-28T06:47:55;8.20;84.80
10316;DHT22;5203;48.976;8.306;2023-12-28T06:50:20;8.10;85.40
10316;DHT22;5203;48.976;8.306;2023-12-28T06:52:46;8.20;83.60
10316;DHT22;5203;48.976;8.306;2023-12-28T06:55:12;8.20;83.80
10316;DHT22;5203;48.976;8.306;2023-12-28T06:57:37;8.20;85.60
10316;DHT22;5203;48.976;8.306;2023-12-28T07:00:03;8.20;86.80
10316;DHT22;5203;48.976;8.306;2023-12-28T07:02:30;8.10;90.00
10316;DHT22;5203;48.976;8.306;2023-12-28T07:04:55;8.10;91.30
10316;DHT22;5203;48.976;8.306;2023-12-28T07:07:21;8.00;92.10
10316;DHT22;5203;48.976;8.306;2023-12-28T07:09:46;8.00;92.90
10316;DHT22;5203;48.976;8.306;2023-12-28T07:12:12;7.90;94.20
10316;DHT22;5203;48.976;8.306;2023-12-28T07:14:38;7.80;96.70
10316;DHT22;5203;48.976;8.306;2023-12-28T07:17:03;7.70;96.70
10316;DHT22;5203;48.976;8.306;2023-12-28T07:19:34;7.70;97.70
10316;DHT22;5203;48.976;8.306;2023-12-28T07:22:03;7.70;98.60
10316;DHT22;5203;48.976;8.306;2023-12-28T07:24:28;7.60;99.90
10316;DHT22;5203;48.976;8.306;2023-12-28T07:26:54;7.50;99.90
10316;DHT22;5203;48.976;8.306;2023-12-28T07:29:20;7.50;99.90
10316;DHT22;5203;48.976;8.306;2023-12-28T07:31:46;7.40;99.90
10316;DHT22;5203;48.976;8.306;2023-12-28T07:34:11;7.40;99.90
10316;DHT22;5203;48.976;8.306;2023-12-28T07:36:37;7.40;99.90
10316;DHT22;5203;48.976;8.306;2023-12-28T07:39:06;7.40;99.90
10316;DHT22;5203;48.976;8.306;2023-12-28T07:41:31;7.40;99.90
10316;DHT22;5203;48.976;8.306;2023-12-28T07:43:57;7.40;99.90
10316;DHT22;5203;48.976;8.306;2023-12-28T07:46:23;7.40;99.90
10316;DHT22;5203;48.976;8.306;2023-12-28T07:48:49;7.40;99.90
10316;DHT22;5203;48.976;8.306;2023-12-28T07:51:14;7.50;99.90
10316;DHT22;5203;48.976;8.306;2023-12-28T07:53:40;7.50;99.90
10316;DHT22;5203;48.976;8.306;2023-12-28T07:56:06;7.50;99.90
10316;DHT22;5203;48.976;8.306;2023-12-28T07:58:32;7.50;99.90
10316;DHT22;5203;48.976;8.306;2023-12-28T08:00:57;7.40;99.90
10316;DHT22;5203;48.976;8.306;2023-12-28T08:03:23;7.30;99.90
10316;DHT22;5203;48.976;8.306;2023-12-28T08:05:54;7.30;99.90
10316;DHT22;5203;48.976;8.306;2023-12-28T08:08:20;7.30;99.90
10316;DHT22;5203;48.976;8.306;2023-12-28T08:10:46;7.30;99.90
10316;DHT22;5203;48.976;8.306;2023-12-28T08:13:12;7.30;99.90
10316;DHT22;5203;48.976;8.306;2023-12-28T08:15:37;7.30;99.90
10316;DHT22;5203;48.976;8.306;2023-12-28T08:18:03;7.20;99.90
10316;DHT22;5203;48.976;8.306;2023-12-28T08:20:29;7.30;99.90
10316;DHT22;5203;48.976;8.306;2023-12-28T08:22:55;7.20;99.90
10316;DHT22;5203;48.976;8.306;2023-12-28T08:25:20;7.30;99.90
10316;DHT22;5203;48.976;8.306;2023-12-28T08:27:48;7.30;99.90
10316;DHT22;5203;48.976;8.306;2023-12-28T08:30:14;7.30;99.90
10316;DHT22;5203;48.976;8.306;2023-12-28T08:32:39;7.40;99.90
10316;DHT22;5203;48.976;8.306;2023-12-28T08:35:05;7.40;99.90
10316;DHT22;5203;48.976;8.306;2023-12-28T08:37:32;7.50;99.90
10316;DHT22;5203;48.976;8.306;2023-12-28T08:39:58;7.50;99.90
10316;DHT22;5203;48.976;8.306;2023-12-28T08:42:24;7.50;99.90
10316;DHT22;5203;48.976;8.306;2023-12-28T08:44:50;7.50;99.90
10316;DHT22;5203;48.976;8.306;2023-12-28T08:47:17;7.50;99.90
10316;DHT22;5203;48.976;8.306;2023-12-28T08:49:46;7.50;99.90
10316;DHT22;5203;48.976;8.306;2023-12-28T08:52:11;7.50;99.90
10316;DHT22;5203;48.976;8.306;2023-12-28T08:54:37;7.50;99.90
10316;DHT22;5203;48.976;8.306;2023-12-28T08:57:03;7.50;99.90
10316;DHT22;5203;48.976;8.306;2023-12-28T08:59:29;7.50;99.90
10316;DHT22;5203;48.976;8.306;2023-12-28T09:01:54;7.50;99.90
10316;DHT22;5203;48.976;8.306;2023-12-28T09:04:20;7.50;99.90
10316;DHT22;5203;48.976;8.306;2023-12-28T09:06:46;7.50;99.90
10316;DHT22;5203;48.976;8.306;2023-12-28T09:09:12;7.50;99.90
10316;DHT22;5203;48.976;8.306;2023-12-28T09:11:38;7.50;99.90
10316;DHT22;5203;48.976;8.306;2023-12-28T09:14:03;7.50;99.90
10316;DHT22;5203;48.976;8.306;2023-12-28T09:16:29;7.50;99.90
10316;DHT22;5203;48.976;8.306;2023-12-28T09:18:55;7.50;99.90
10316;DHT22;5203;48.976;8.306;2023-12-28T09:21:22;7.50;99.90
10316;DHT22;5203;48.976;8.306;2023-12-28T09:23:48;7.50;99.90
10316;DHT22;5203;48.976;8.306;2023-12-28T09:26:14;7.50;99.90
10316;DHT22;5203;48.976;8.306;2023-12-28T09:28:39;7.50;99.90
10316;DHT22;5203;48.976;8.306;2023-12-28T09:31:06;7.50;99.90
10316;DHT22;5203;48.976;8.306;2023-12-28T09:33:32;7.60;99.90
10316;DHT22;5203;48.976;8.306;2023-12-28T09:35:58;7.60;99.90
10316;DHT22;5203;48.976;8.306;2023-12-28T09:38:25;7.70;99.90
10316;DHT22;5203;48.976;8.306;2023-12-28T09:40:53;7.80;99.90
10316;DHT22;5203;48.976;8.306;2023-12-28T09:45:48;7.90;99.60
10316;DHT22;5203;48.976;8.306;2023-12-28T09:48:17;8.00;99.90
10316;DHT22;5203;48.976;8.306;2023-12-28T09:50:51;8.00;98.50
10316;DHT22;5203;48.976;8.306;2023-12-28T09:53:25;8.00;99.10
10316;DHT22;5203;48.976;8.306;2023-12-28T09:55:51;8.00;98.50
10316;DHT22;5203;48.976;8.306;2023-12-28T09:58:19;8.10;99.20
10316;DHT22;5203;48.976;8.306;2023-12-28T10:00:46;8.10;99.90
10316;DHT22;5203;48.976;8.306;2023-12-28T10:03:16;8.00;99.90
10316;DHT22;5203;48.976;8.306;2023-12-28T10:05:43;8.00;99.20
10316;DHT22;5203;48.976;8.306;2023-12-28T10:08:11;8.00;99.90
10316;DHT22;5203;48.976;8.306;2023-12-28T10:10:36;8.00;99.90
10316;DHT22;5203;48.976;8.306;2023-12-28T10:13:02;8.00;99.90
10316;DHT22;5203;48.976;8.306;2023-12-28T10:15:30;8.00;99.90
10316;DHT22;5203;48.976;8.306;2023-12-28T10:17:55;7.90;99.90
10316;DHT22;5203;48.976;8.306;2023-12-28T10:20:21;8.00;99.90
10316;DHT22;5203;48.976;8.306;2023-12-28T10:22:47;8.00;99.90
10316;DHT22;5203;48.976;8.306;2023-12-28T10:25:13;7.90;99.90
10316;DHT22;5203;48.976;8.306;2023-12-28T10:27:39;7.90;99.90
10316;DHT22;5203;48.976;8.306;2023-12-28T10:30:09;7.90;99.90
10316;DHT22;5203;48.976;8.306;2023-12-28T10:32:39;7.80;99.90
10316;DHT22;5203;48.976;8.306;2023-12-28T10:35:05;7.80;99.90
10316;DHT22;5203;48.976;8.306;2023-12-28T10:37:32;7.80;99.90
10316;DHT22;5203;48.976;8.306;2023-12-28T10:39:59;7.80;99.90
10316;DHT22;5203;48.976;8.306;2023-12-28T10:42:30;7.80;99.90
10316;DHT22;5203;48.976;8.306;2023-12-28T10:45:05;7.80;99.90
10316;DHT22;5203;48.976;8.306;2023-12-28T10:47:37;7.90;99.90
10316;DHT22;5203;48.976;8.306;2023-12-28T10:50:04;7.90;99.90
10316;DHT22;5203;48.976;8.306;2023-12-28T10:52:32;7.90;99.90
10316;DHT22;5203;48.976;8.306;2023-12-28T11:00:30;8.00;99.90
10316;DHT22;5203;48.976;8.306;2023-12-28T11:03:03;8.00;99.90
10316;DHT22;5203;48.976;8.306;2023-12-28T11:05:33;8.10;99.90
10316;DHT22;5203;48.976;8.306;2023-12-28T11:08:02;8.20;99.90
10316;DHT22;5203;48.976;8.306;2023-12-28T11:10:30;8.20;99.90
10316;DHT22;5203;48.976;8.306;2023-12-28T11:12:56;8.20;99.90
10316;DHT22;5203;48.976;8.306;2023-12-28T11:15:23;8.20;99.90
10316;DHT22;5203;48.976;8.306;2023-12-28T11:17:51;8.20;99.90
10316;DHT22;5203;48.976;8.306;2023-12-28T11:20:17;8.20;99.90
10316;DHT22;5203;48.976;8.306;2023-12-28T11:22:46;8.10;99.90
10316;DHT22;5203;48.976;8.306;2023-12-28T11:25:17;8.10;99.90
10316;DHT22;5203;48.976;8.306;2023-12-28T11:27:44;8.00;99.90
10316;DHT22;5203;48.976;8.306;2023-12-28T11:30:11;8.10;99.90
10316;DHT22;5203;48.976;8.306;2023-12-28T11:32:38;8.00;99.90
10316;DHT22;5203;48.976;8.306;2023-12-28T11:35:06;8.00;99.90
10316;DHT22;5203;48.976;8.306;2023-12-28T11:37:36;7.90;99.90
10316;DHT22;5203;48.976;8.306;2023-12-28T11:40:16;7.90;99.90
10316;DHT22;5203;48.976;8.306;2023-12-28T11:42:53;7.90;99.90
10316;DHT22;5203;48.976;8.306;2023-12-28T11:45:25;7.90;99.90
10316;DHT22;5203;48.976;8.306;2023-12-28T11:48:02;7.90;99.90
10316;DHT22;5203;48.976;8.306;2023-12-28T11:50:27;7.90;99.90
10316;DHT22;5203;48.976;8.306;2023-12-28T11:52:53;7.90;99.90
10316;DHT22;5203;48.976;8.306;2023-12-28T11:55:22;7.90;99.90
10316;DHT22;5203;48.976;8.306;2023-12-28T11:57:51;8.00;99.90
10316;DHT22;5203;48.976;8.306;2023-12-28T12:00:18;8.00;99.90
10316;DHT22;5203;48.976;8.306;2023-12-28T12:02:45;8.00;99.90
10316;DHT22;5203;48.976;8.306;2023-12-28T12:05:11;8.10;99.90
10316;DHT22;5203;48.976;8.306;2023-12-28T12:07:37;8.10;99.90
10316;DHT22;5203;48.976;8.306;2023-12-28T12:10:06;8.20;99.90
10316;DHT22;5203;48.976;8.306;2023-12-28T12:12:32;8.30;99.90
10316;DHT22;5203;48.976;8.306;2023-12-28T12:14:58;8.30;99.90
10316;DHT22;5203;48.976;8.306;2023-12-28T12:17:23;8.30;99.90
10316;DHT22;5203;48.976;8.306;2023-12-28T12:19:50;8.30;99.90
10316;DHT22;5203;48.976;8.306;2023-12-28T12:22:20;8.30;99.90
10316;DHT22;5203;48.976;8.306;2023-12-28T12:24:49;8.40;99.90
10316;DHT22;5203;48.976;8.306;2023-12-28T12:27:17;8.40;99.90
10316;DHT22;5203;48.976;8.306;2023-12-28T12:29:43;8.40;99.90
10316;DHT22;5203;48.976;8.306;2023-12-28T12:32:09;8.40;99.90
10316;DHT22;5203;48.976;8.306;2023-12-28T12:34:35;8.50;99.90
10316;DHT22;5203;48.976;8.306;2023-12-28T12:37:01;8.50;99.90
10316;DHT22;5203;48.976;8.306;2023-12-28T12:39:26;8.50;99.90
10316;DHT22;5203;48.976;8.306;2023-12-28T12:41:53;8.50;99.90
10316;DHT22;5203;48.976;8.306;2023-12-28T12:44:22;8.50;99.90
10316;DHT22;5203;48.976;8.306;2023-12-28T12:46:47;8.60;99.90
10316;DHT22;5203;48.976;8.306;2023-12-28T12:49:13;8.60;99.90
10316;DHT22;5203;48.976;8.306;2023-12-28T12:51:39;8.50;99.90
10316;DHT22;5203;48.976;8.306;2023-12-28T12:54:07;8.50;99.90
10316;DHT22;5203;48.976;8.306;2023-12-28T12:56:34;8.50;99.90
10316;DHT22;5203;48.976;8.306;2023-12-28T12:59:00;8.60;99.90
10316;DHT22;5203;48.976;8.306;2023-12-28T13:01:26;8.50;99.90
10316;DHT22;5203;48.976;8.306;2023-12-28T13:03:52;8.50;99.90
10316;DHT22;5203;48.976;8.306;2023-12-28T13:06:17;8.50;99.90
10316;DHT22;5203;48.976;8.306;2023-12-28T13:08:43;8.60;99.90
10316;DHT22;5203;48.976;8.306;2023-12-28T13:11:09;8.60;99.90
10316;DHT22;5203;48.976;8.306;2023-12-28T13:13:35;8.60;99.90
10316;DHT22;5203;48.976;8.306;2023-12-28T13:16:04;8.60;99.90
10316;DHT22;5203;48.976;8.306;2023-12-28T13:18:29;8.60;99.90
10316;DHT22;5203;48.976;8.306;2023-12-28T13:20:55;8.60;99.90
10316;DHT22;5203;48.976;8.306;2023-12-28T13:23:27;8.60;99.90
10316;DHT22;5203;48.976;8.306;2023-12-28T13:25:54;8.50;99.90
10316;DHT22;5203;48.976;8.306;2023-12-28T13:28:20;8.50;99.90
10316;DHT22;5203;48.976;8.306;2023-12-28T13:30:46;8.60;99.90
10316;DHT22;5203;48.976;8.306;2023-12-28T13:33:11;8.70;99.90
10316;DHT22;5203;48.976;8.306;2023-12-28T13:35:37;8.60;99.90
10316;DHT22;5203;48.976;8.306;2023-12-28T13:38:03;8.60;99.90
10316;DHT22;5203;48.976;8.306;2023-12-28T13:40:29;8.50;99.90
10316;DHT22;5203;48.976;8.306;2023-12-28T13:42:56;8.50;99.90
10316;DHT22;5203;48.976;8.306;2023-12-28T13:45:22;8.40;99.90
10316;DHT22;5203;48.976;8.306;2023-12-28T13:47:48;8.40;99.90
10316;DHT22;5203;48.976;8.306;2023-12-28T13:50:14;8.30;99.90
10316;DHT22;5203;48.976;8.306;2023-12-28T13:52:39;8.30;99.90
10316;DHT22;5203;48.976;8.306;2023-12-28T13:55:06;8.30;99.90
10316;DHT22;5203;48.976;8.306;2023-12-28T13:57:31;8.30;99.90
10316;DHT22;5203;48.976;8.306;2023-12-28T13:59:57;8.30;99.90
10316;DHT22;5203;48.976;8.306;2023-12-28T14:02:26;8.40;99.90
10316;DHT22;5203;48.976;8.306;2023-12-28T14:04:52;8.30;99.90
10316;DHT22;5203;48.976;8.306;2023-12-28T14:07:19;8.40;99.90
10316;DHT22;5203;48.976;8.306;2023-12-28T14:09:45;8.40;99.90
10316;DHT22;5203;48.976;8.306;2023-12-28T14:12:11;8.40;99.90
10316;DHT22;5203;48.976;8.306;2023-12-28T14:14:36;8.40;99.90
10316;DHT22;5203;48.976;8.306;2023-12-28T14:17:05;8.40;99.90
10316;DHT22;5203;48.976;8.306;2023-12-28T14:19:31;8.40;99.90
10316;DHT22;5203;48.976;8.306;2023-12-28T14:21:58;8.40;99.90
10316;DHT22;5203;48.976;8.306;2023-12-28T14:24:24;8.40;99.90
10316;DHT22;5203;48.976;8.306;2023-12-28T14:26:53;8.40;99.90
10316;DHT22;5203;48.976;8.306;2023-12-28T14:29:20;8.40;99.90
10316;DHT22;5203;48.976;8.306;2023-12-28T14:31:46;8.40;99.90
10316;DHT22;5203;48.976;8.306;2023-12-28T14:34:13;8.40;99.90
10316;DHT22;5203;48.976;8.306;2023-12-28T14:36:39;8.40;99.90
10316;DHT22;5203;48.976;8.306;2023-12-28T14:39:06;8.40;99.90
10316;DHT22;5203;48.976;8.306;2023-12-28T14:41:36;8.40;99.90
10316;DHT22;5203;48.976;8.306;2023-12-28T14:44:02;8.40;99.90
10316;DHT22;5203;48.976;8.306;2023-12-28T14:46:28;8.40;99.90
10316;DHT22;5203;48.976;8.306;2023-12-28T14:48:55;8.40;99.90
10316;DHT22;5203;48.976;8.306;2023-12-28T14:51:21;8.50;99.90
10316;DHT22;5203;48.976;8.306;2023-12-28T14:53:47;8.40;99.90
10316;DHT22;5203;48.976;8.306;2023-12-28T14:56:13;8.40;99.90
10316;DHT22;5203;48.976;8.306;2023-12-28T14:58:39;8.40;99.90
10316;DHT22;5203;48.976;8.306;2023-12-28T15:01:06;8.50;99.90
10316;DHT22;5203;48.976;8.306;2023-12-28T15:03:32;8.40;99.90
10316;DHT22;5203;48.976;8.306;2023-12-28T15:05:57;8.50;99.90
10316;DHT22;5203;48.976;8.306;2023-12-28T15:08:24;8.50;99.90
10316;DHT22;5203;48.976;8.306;2023-12-28T15:10:51;8.50;99.90
10316;DHT22;5203;48.976;8.306;2023-12-28T15:13:17;8.50;99.90
10316;DHT22;5203;48.976;8.306;2023-12-28T15:15:43;8.60;99.90
10316;DHT22;5203;48.976;8.306;2023-12-28T15:18:10;8.60;99.90
10316;DHT22;5203;48.976;8.306;2023-12-28T15:20:36;8.60;99.90
10316;DHT22;5203;48.976;8.306;2023-12-28T15:23:02;8.60;99.90
10316;DHT22;5203;48.976;8.306;2023-12-28T15:25:28;8.70;99.90
10316;DHT22;5203;48.976;8.306;2023-12-28T15:27:54;8.60;99.90
10316;DHT22;5203;48.976;8.306;2023-12-28T15:30:20;8.70;99.90
10316;DHT22;5203;48.976;8.306;2023-12-28T15:32:46;8.70;99.90
10316;DHT22;5203;48.976;8.306;2023-12-28T15:35:13;8.70;99.90
10316;DHT22;5203;48.976;8.306;2023-12-28T15:37:42;8.70;99.90
10316;DHT22;5203;48.976;8.306;2023-12-28T15:40:08;8.70;99.90
10316;DHT22;5203;48.976;8.306;2023-12-28T15:42:34;8.70;99.90
10316;DHT22;5203;48.976;8.306;2023-12-28T15:45:01;8.70;99.90
10316;DHT22;5203;48.976;8.306;2023-12-28T15:47:27;8.70;99.90
10316;DHT22;5203;48.976;8.306;2023-12-28T15:49:54;8.70;99.90
10316;DHT22;5203;48.976;8.306;2023-12-28T15:52:20;8.60;99.90
10316;DHT22;5203;48.976;8.306;2023-12-28T15:54:45;8.60;99.90
10316;DHT22;5203;48.976;8.306;2023-12-28T15:57:11;8.60;99.90
10316;DHT22;5203;48.976;8.306;2023-12-28T15:59:37;8.60;99.90
10316;DHT22;5203;48.976;8.306;2023-12-28T16:02:02;8.60;99.90
10316;DHT22;5203;48.976;8.306;2023-12-28T16:04:31;8.60;99.90
10316;DHT22;5203;48.976;8.306;2023-12-28T16:07:03;8.60;99.90
10316;DHT22;5203;48.976;8.306;2023-12-28T16:09:29;8.60;99.90